sensor_id;sensor_type;location;lat;lon;timestamp;pressure;altitude;pressure_sealevel;temperature;humidity
51928;BME280;37953;52.806;18.270;2024-01-30T00:01:03;102148.13;;;3.80;100.00
51928;BME280;37953;52.806;18.270;2024-01-30T00:03:49;102143.88;;;3.81;100.00
51928;BME280;37953;52.806;18.270;2024-01-30T00:06:20;102136.09;;;3.79;100.00
51928;BME280;37953;52.806;18.270;2024-01-30T00:08:49;102135.13;;;3.77;100.00
51928;BME280;37953;52.806;18.270;2024-01-30T00:11:16;102138.41;;;3.75;100.00
51928;BME280;37953;52.806;18.270;2024-01-30T00:13:42;102140.06;;;3.74;100.00
51928;BME280;37953;52.806;18.270;2024-01-30T00:16:08;102134.94;;;3.74;100.00
51928;BME280;37953;52.806;18.270;2024-01-30T00:18:35;102135.03;;;3.76;100.00
51928;BME280;37953;52.806;18.270;2024-01-30T00:21:02;102135.91;;;3.76;100.00
51928;BME280;37953;52.806;18.270;2024-01-30T00:23:28;102142.84;;;3.77;100.00
51928;BME280;37953;52.806;18.270;2024-01-30T00:25:54;102147.97;;;3.77;100.00
51928;BME280;37953;52.806;18.270;2024-01-30T00:28:21;102156.56;;;3.78;100.00
51928;BME280;37953;52.806;18.270;2024-01-30T00:30:47;102153.19;;;3.79;100.00
51928;BME280;37953;52.806;18.270;2024-01-30T00:33:13;102151.59;;;3.81;100.00
51928;BME280;37953;52.806;18.270;2024-01-30T00:35:39;102140.44;;;3.80;100.00
51928;BME280;37953;52.806;18.270;2024-01-30T00:38:05;102141.31;;;3.81;100.00
51928;BME280;37953;52.806;18.270;2024-01-30T00:40:33;102137.75;;;3.79;100.00
51928;BME280;37953;52.806;18.270;2024-01-30T00:42:59;102135.19;;;3.79;100.00
51928;BME280;37953;52.806;18.270;2024-01-30T00:45:26;102138.66;;;3.79;100.00
51928;BME280;37953;52.806;18.270;2024-01-30T00:47:52;102145.41;;;3.77;100.00
51928;BME280;37953;52.806;18.270;2024-01-30T00:50:18;102136.00;;;3.78;100.00
51928;BME280;37953;52.806;18.270;2024-01-30T00:52:44;102140.06;;;3.74;100.00
51928;BME280;37953;52.806;18.270;2024-01-30T00:55:11;102139.28;;;3.75;100.00
51928;BME280;37953;52.806;18.270;2024-01-30T00:57:37;102136.63;;;3.74;100.00
51928;BME280;37953;52.806;18.270;2024-01-30T01:00:03;102130.16;;;3.65;100.00
51928;BME280;37953;52.806;18.270;2024-01-30T01:02:40;102132.19;;;3.71;100.00
51928;BME280;37953;52.806;18.270;2024-01-30T01:05:06;102128.03;;;3.73;100.00
51928;BME280;37953;52.806;18.270;2024-01-30T01:07:32;102126.34;;;3.74;100.00
51928;BME280;37953;52.806;18.270;2024-01-30T01:09:59;102124.59;;;3.73;100.00
51928;BME280;37953;52.806;18.270;2024-01-30T01:12:24;102122.91;;;3.73;100.00
51928;BME280;37953;52.806;18.270;2024-01-30T01:14:53;102125.56;;;3.75;100.00
51928;BME280;37953;52.806;18.270;2024-01-30T01:17:19;102116.88;;;3.73;100.00
51928;BME280;37953;52.806;18.270;2024-01-30T01:19:45;102123.06;;;3.76;100.00
51928;BME280;37953;52.806;18.270;2024-01-30T01:22:11;102123.97;;;3.77;100.00
51928;BME280;37953;52.806;18.270;2024-01-30T01:24:38;102122.28;;;3.77;100.00
51928;BME280;37953;52.806;18.270;2024-01-30T01:27:05;102121.47;;;3.78;100.00
51928;BME280;37953;52.806;18.270;2024-01-30T01:29:31;102117.28;;;3.80;100.00
51928;BME280;37953;52.806;18.270;2024-01-30T01:31:58;102113.94;;;3.81;100.00
51928;BME280;37953;52.806;18.270;2024-01-30T01:34:24;102115.59;;;3.81;100.00
51928;BME280;37953;52.806;18.270;2024-01-30T01:36:55;102103.81;;;3.84;100.00
51928;BME280;37953;52.806;18.270;2024-01-30T01:39:31;102112.41;;;3.85;100.00
51928;BME280;37953;52.806;18.270;2024-01-30T01:41:57;102113.31;;;3.85;100.00
51928;BME280;37953;52.806;18.270;2024-01-30T01:44:23;102099.56;;;3.85;100.00
51928;BME280;37953;52.806;18.270;2024-01-30T01:46:49;102111.63;;;3.86;100.00
51928;BME280;37953;52.806;18.270;2024-01-30T01:49:15;102106.47;;;3.86;100.00
51928;BME280;37953;52.806;18.270;2024-01-30T01:51:51;102101.34;;;3.86;100.00
51928;BME280;37953;52.806;18.270;2024-01-30T01:54:18;102102.06;;;3.83;100.00
51928;BME280;37953;52.806;18.270;2024-01-30T01:56:44;102102.84;;;3.82;100.00
51928;BME280;37953;52.806;18.270;2024-01-30T01:59:10;102107.88;;;3.81;100.00
51928;BME280;37953;52.806;18.270;2024-01-30T02:01:39;102099.31;;;3.80;100.00
51928;BME280;37953;52.806;18.270;2024-01-30T02:04:09;102093.28;;;3.80;100.00
51928;BME280;37953;52.806;18.270;2024-01-30T02:06:35;102097.53;;;3.79;100.00
51928;BME280;37953;52.806;18.270;2024-01-30T02:09:01;102100.91;;;3.78;100.00
51928;BME280;37953;52.806;18.270;2024-01-30T02:11:28;102102.59;;;3.78;100.00
51928;BME280;37953;52.806;18.270;2024-01-30T02:13:54;102108.59;;;3.78;100.00
51928;BME280;37953;52.806;18.270;2024-01-30T02:16:20;102107.72;;;3.78;100.00
51928;BME280;37953;52.806;18.270;2024-01-30T02:18:46;102107.63;;;3.76;100.00
51928;BME280;37953;52.806;18.270;2024-01-30T02:21:17;102105.00;;;3.75;100.00
51928;BME280;37953;52.806;18.270;2024-01-30T02:23:44;102107.63;;;3.76;100.00
51928;BME280;37953;52.806;18.270;2024-01-30T02:26:12;102099.66;;;3.72;100.00
51928;BME280;37953;52.806;18.270;2024-01-30T02:28:38;102103.13;;;3.72;100.00
51928;BME280;37953;52.806;18.270;2024-01-30T02:31:05;102110.03;;;3.73;100.00
51928;BME280;37953;52.806;18.270;2024-01-30T02:33:31;102104.81;;;3.72;100.00
51928;BME280;37953;52.806;18.270;2024-01-30T02:35:57;102111.63;;;3.71;100.00
51928;BME280;37953;52.806;18.270;2024-01-30T02:38:24;102114.13;;;3.70;100.00
51928;BME280;37953;52.806;18.270;2024-01-30T02:40:52;102113.94;;;3.66;100.00
51928;BME280;37953;52.806;18.270;2024-01-30T02:43:19;102118.91;;;3.63;100.00
51928;BME280;37953;52.806;18.270;2024-01-30T02:45:45;102118.81;;;3.62;100.00
51928;BME280;37953;52.806;18.270;2024-01-30T02:48:11;102116.94;;;3.59;100.00
51928;BME280;37953;52.806;18.270;2024-01-30T02:50:37;102111.56;;;3.55;100.00
51928;BME280;37953;52.806;18.270;2024-01-30T02:53:03;102108.00;;;3.53;100.00
51928;BME280;37953;52.806;18.270;2024-01-30T02:55:30;102109.50;;;3.49;100.00
51928;BME280;37953;52.806;18.270;2024-01-30T02:57:55;102093.22;;;3.49;100.00
51928;BME280;37953;52.806;18.270;2024-01-30T03:00:23;102101.72;;;3.47;100.00
51928;BME280;37953;52.806;18.270;2024-01-30T03:02:49;102105.78;;;3.44;100.00
51928;BME280;37953;52.806;18.270;2024-01-30T03:05:15;102104.09;;;3.44;100.00
51928;BME280;37953;52.806;18.270;2024-01-30T03:07:41;102104.81;;;3.42;100.00
51928;BME280;37953;52.806;18.270;2024-01-30T03:10:08;102110.66;;;3.39;100.00
51928;BME280;37953;52.806;18.270;2024-01-30T03:12:34;102108.81;;;3.37;100.00
51928;BME280;37953;52.806;18.270;2024-01-30T03:15:00;102118.13;;;3.35;100.00
51928;BME280;37953;52.806;18.270;2024-01-30T03:17:26;102114.56;;;3.33;100.00
51928;BME280;37953;52.806;18.270;2024-01-30T03:19:52;102111.81;;;3.30;100.00
51928;BME280;37953;52.806;18.270;2024-01-30T03:22:18;102112.69;;;3.30;100.00
51928;BME280;37953;52.806;18.270;2024-01-30T03:24:47;102104.91;;;3.29;100.00
51928;BME280;37953;52.806;18.270;2024-01-30T03:27:13;102105.69;;;3.28;100.00
51928;BME280;37953;52.806;18.270;2024-01-30T03:29:39;102106.31;;;3.23;100.00
51928;BME280;37953;52.806;18.270;2024-01-30T03:32:05;102103.66;;;3.22;100.00
51928;BME280;37953;52.806;18.270;2024-01-30T03:34:31;102100.13;;;3.20;100.00
51928;BME280;37953;52.806;18.270;2024-01-30T03:36:57;102105.25;;;3.20;100.00
51928;BME280;37953;52.806;18.270;2024-01-30T03:39:23;102105.78;;;3.14;100.00
51928;BME280;37953;52.806;18.270;2024-01-30T03:41:49;102103.81;;;3.10;100.00
51928;BME280;37953;52.806;18.270;2024-01-30T03:44:15;102107.38;;;3.12;100.00
51928;BME280;37953;52.806;18.270;2024-01-30T03:46:41;102102.13;;;3.11;100.00
51928;BME280;37953;52.806;18.270;2024-01-30T03:49:09;102101.25;;;3.10;100.00
51928;BME280;37953;52.806;18.270;2024-01-30T03:51:35;102097.81;;;3.10;100.00
51928;BME280;37953;52.806;18.270;2024-01-30T03:54:01;102094.06;;;3.04;100.00
51928;BME280;37953;52.806;18.270;2024-01-30T03:56:29;102100.38;;;3.10;100.00
51928;BME280;37953;52.806;18.270;2024-01-30T03:58:55;102100.28;;;3.08;100.00
51928;BME280;37953;52.806;18.270;2024-01-30T04:01:22;102096.00;;;3.09;100.00
51928;BME280;37953;52.806;18.270;2024-01-30T04:03:48;102107.09;;;3.08;100.00
51928;BME280;37953;52.806;18.270;2024-01-30T04:06:14;102103.66;;;3.07;100.00
51928;BME280;37953;52.806;18.270;2024-01-30T04:08:41;102110.44;;;3.06;100.00
51928;BME280;37953;52.806;18.270;2024-01-30T04:11:07;102104.53;;;3.08;100.00
51928;BME280;37953;52.806;18.270;2024-01-30T04:13:33;102104.53;;;3.08;100.00
51928;BME280;37953;52.806;18.270;2024-01-30T04:16:00;102109.75;;;3.09;100.00
51928;BME280;37953;52.806;18.270;2024-01-30T04:18:29;102106.38;;;3.10;100.00
51928;BME280;37953;52.806;18.270;2024-01-30T04:20:55;102105.50;;;3.10;100.00
51928;BME280;37953;52.806;18.270;2024-01-30T04:23:21;102110.53;;;3.08;100.00
51928;BME280;37953;52.806;18.270;2024-01-30T04:25:47;102108.94;;;3.10;100.00
51928;BME280;37953;52.806;18.270;2024-01-30T04:28:14;102107.25;;;3.11;100.00
51928;BME280;37953;52.806;18.270;2024-01-30T04:30:40;102108.06;;;3.10;100.00
51928;BME280;37953;52.806;18.270;2024-01-30T04:33:06;102100.47;;;3.11;100.00
51928;BME280;37953;52.806;18.270;2024-01-30T04:35:32;102103.03;;;3.11;100.00
51928;BME280;37953;52.806;18.270;2024-01-30T04:37:59;102107.38;;;3.12;100.00
51928;BME280;37953;52.806;18.270;2024-01-30T04:40:25;102103.91;;;3.12;100.00
51928;BME280;37953;52.806;18.270;2024-01-30T04:42:51;102108.25;;;3.13;100.00
51928;BME280;37953;52.806;18.270;2024-01-30T04:45:17;102096.13;;;3.10;100.00
51928;BME280;37953;52.806;18.270;2024-01-30T04:47:43;102107.38;;;3.12;100.00
51928;BME280;37953;52.806;18.270;2024-01-30T04:50:09;102107.38;;;3.12;100.00
51928;BME280;37953;52.806;18.270;2024-01-30T04:52:35;102113.31;;;3.11;100.00
51928;BME280;37953;52.806;18.270;2024-01-30T04:55:02;102109.84;;;3.11;100.00
51928;BME280;37953;52.806;18.270;2024-01-30T04:57:28;102107.25;;;3.11;100.00
51928;BME280;37953;52.806;18.270;2024-01-30T04:59:59;102100.91;;;3.19;100.00
51928;BME280;37953;52.806;18.270;2024-01-30T05:02:25;102107.47;;;3.14;100.00
51928;BME280;37953;52.806;18.270;2024-01-30T05:04:51;102105.59;;;3.11;100.00
51928;BME280;37953;52.806;18.270;2024-01-30T05:07:17;102107.25;;;3.11;100.00
51928;BME280;37953;52.806;18.270;2024-01-30T05:09:47;102104.69;;;3.11;100.00
51928;BME280;37953;52.806;18.270;2024-01-30T05:12:14;102108.16;;;3.11;100.00
51928;BME280;37953;52.806;18.270;2024-01-30T05:14:39;102108.16;;;3.11;100.00
51928;BME280;37953;52.806;18.270;2024-01-30T05:17:06;102107.38;;;3.12;100.00
51928;BME280;37953;52.806;18.270;2024-01-30T05:19:43;102107.38;;;3.12;100.00
51928;BME280;37953;52.806;18.270;2024-01-30T05:22:10;102100.47;;;3.11;100.00
51928;BME280;37953;52.806;18.270;2024-01-30T05:24:37;102105.50;;;3.10;100.00
51928;BME280;37953;52.806;18.270;2024-01-30T05:27:03;102102.94;;;3.10;100.00
51928;BME280;37953;52.806;18.270;2024-01-30T05:29:29;102104.69;;;3.11;100.00
51928;BME280;37953;52.806;18.270;2024-01-30T05:31:55;102103.81;;;3.10;100.00
51928;BME280;37953;52.806;18.270;2024-01-30T05:34:21;102109.84;;;3.11;100.00
51928;BME280;37953;52.806;18.270;2024-01-30T05:36:47;102109.94;;;3.12;100.00
51928;BME280;37953;52.806;18.270;2024-01-30T05:39:13;102115.16;;;3.14;100.00
51928;BME280;37953;52.806;18.270;2024-01-30T05:41:39;102110.91;;;3.14;100.00
51928;BME280;37953;52.806;18.270;2024-01-30T05:44:05;102098.84;;;3.13;100.00
51928;BME280;37953;52.806;18.270;2024-01-30T05:46:31;102102.41;;;3.15;100.00
51928;BME280;37953;52.806;18.270;2024-01-30T05:48:57;102108.44;;;3.16;100.00
51928;BME280;37953;52.806;18.270;2024-01-30T05:51:24;102112.66;;;3.15;100.00
51928;BME280;37953;52.806;18.270;2024-01-30T05:53:50;102112.66;;;3.15;100.00
51928;BME280;37953;52.806;18.270;2024-01-30T05:56:16;102122.06;;;3.15;100.00
51928;BME280;37953;52.806;18.270;2024-01-30T05:58:42;102120.31;;;3.14;100.00
51928;BME280;37953;52.806;18.270;2024-01-30T06:01:09;102115.06;;;3.12;100.00
51928;BME280;37953;52.806;18.270;2024-01-30T06:03:37;102115.06;;;3.12;100.00
51928;BME280;37953;52.806;18.270;2024-01-30T06:06:04;102113.31;;;3.11;100.00
51928;BME280;37953;52.806;18.270;2024-01-30T06:08:30;102112.41;;;3.11;100.00
51928;BME280;37953;52.806;18.270;2024-01-30T06:10:57;102124.47;;;3.12;100.00
51928;BME280;37953;52.806;18.270;2024-01-30T06:13:22;102121.00;;;3.11;100.00
51928;BME280;37953;52.806;18.270;2024-01-30T06:15:49;102129.59;;;3.12;100.00
51928;BME280;37953;52.806;18.270;2024-01-30T06:18:15;102126.16;;;3.11;100.00
51928;BME280;37953;52.806;18.270;2024-01-30T06:20:41;102124.47;;;3.12;100.00
51928;BME280;37953;52.806;18.270;2024-01-30T06:23:07;102125.22;;;3.11;100.00
51928;BME280;37953;52.806;18.270;2024-01-30T06:25:33;102117.63;;;3.12;100.00
51928;BME280;37953;52.806;18.270;2024-01-30T06:27:59;102117.63;;;3.12;100.00
51928;BME280;37953;52.806;18.270;2024-01-30T06:30:25;102117.63;;;3.12;100.00
51928;BME280;37953;52.806;18.270;2024-01-30T06:32:51;102115.94;;;3.13;100.00
51928;BME280;37953;52.806;18.270;2024-01-30T06:35:17;102121.06;;;3.13;100.00
51928;BME280;37953;52.806;18.270;2024-01-30T06:37:43;102121.06;;;3.13;100.00
51928;BME280;37953;52.806;18.270;2024-01-30T06:40:09;102122.78;;;3.12;100.00
51928;BME280;37953;52.806;18.270;2024-01-30T06:42:35;102124.63;;;3.15;100.00
51928;BME280;37953;52.806;18.270;2024-01-30T06:45:02;102121.19;;;3.14;100.00
51928;BME280;37953;52.806;18.270;2024-01-30T06:47:28;102116.03;;;3.14;100.00
51928;BME280;37953;52.806;18.270;2024-01-30T06:50:04;102117.03;;;3.16;100.00
51928;BME280;37953;52.806;18.270;2024-01-30T06:52:30;102111.88;;;3.16;100.00
51928;BME280;37953;52.806;18.270;2024-01-30T06:54:59;102115.34;;;3.17;100.00
51928;BME280;37953;52.806;18.270;2024-01-30T06:57:25;102105.06;;;3.17;100.00
51928;BME280;37953;52.806;18.270;2024-01-30T06:59:53;102112.88;;;3.18;100.00
51928;BME280;37953;52.806;18.270;2024-01-30T07:02:19;102112.88;;;3.18;100.00
51928;BME280;37953;52.806;18.270;2024-01-30T07:04:48;102106.91;;;3.19;100.00
51928;BME280;37953;52.806;18.270;2024-01-30T07:07:15;102106.13;;;3.20;100.00
51928;BME280;37953;52.806;18.270;2024-01-30T07:09:41;102111.38;;;3.22;100.00
51928;BME280;37953;52.806;18.270;2024-01-30T07:12:10;102110.47;;;3.21;100.00
51928;BME280;37953;52.806;18.270;2024-01-30T07:14:36;102114.81;;;3.22;100.00
51928;BME280;37953;52.806;18.270;2024-01-30T07:17:03;102120.06;;;3.24;100.00
51928;BME280;37953;52.806;18.270;2024-01-30T07:19:29;102114.22;;;3.26;100.00
51928;BME280;37953;52.806;18.270;2024-01-30T07:21:55;102121.09;;;3.28;100.00
51928;BME280;37953;52.806;18.270;2024-01-30T07:24:21;102115.97;;;3.28;100.00
51928;BME280;37953;52.806;18.270;2024-01-30T07:26:47;102117.13;;;3.33;100.00
51928;BME280;37953;52.806;18.270;2024-01-30T07:29:14;102125.72;;;3.33;100.00
51928;BME280;37953;52.806;18.270;2024-01-30T07:31:40;102124.91;;;3.34;100.00
51928;BME280;37953;52.806;18.270;2024-01-30T07:34:06;102121.66;;;3.37;100.00
51928;BME280;37953;52.806;18.270;2024-01-30T07:36:32;102129.44;;;3.38;100.00
51928;BME280;37953;52.806;18.270;2024-01-30T07:38:58;102128.66;;;3.39;100.00
51928;BME280;37953;52.806;18.270;2024-01-30T07:41:24;102126.19;;;3.41;100.00
51928;BME280;37953;52.806;18.270;2024-01-30T07:43:51;102116.88;;;3.43;100.00
51928;BME280;37953;52.806;18.270;2024-01-30T07:46:17;102122.97;;;3.45;100.00
51928;BME280;37953;52.806;18.270;2024-01-30T07:48:44;102123.16;;;3.48;100.00
51928;BME280;37953;52.806;18.270;2024-01-30T07:51:10;102117.22;;;3.49;100.00
51928;BME280;37953;52.806;18.270;2024-01-30T07:53:45;102117.31;;;3.51;100.00
51928;BME280;37953;52.806;18.270;2024-01-30T07:56:11;102115.72;;;3.53;100.00
51928;BME280;37953;52.806;18.270;2024-01-30T07:58:37;102112.44;;;3.55;100.00
51928;BME280;37953;52.806;18.270;2024-01-30T08:01:03;102109.19;;;3.58;100.00
51928;BME280;37953;52.806;18.270;2024-01-30T08:03:30;102110.94;;;3.59;100.00
51928;BME280;37953;52.806;18.270;2024-01-30T08:06:00;102105.06;;;3.61;100.00
51928;BME280;37953;52.806;18.270;2024-01-30T08:08:26;102108.63;;;3.63;100.00
51928;BME280;37953;52.806;18.270;2024-01-30T08:10:52;102111.28;;;3.65;100.00
51928;BME280;37953;52.806;18.270;2024-01-30T08:13:18;102115.63;;;3.66;100.00
51928;BME280;37953;52.806;18.270;2024-01-30T08:15:45;102129.53;;;3.70;100.00
51928;BME280;37953;52.806;18.270;2024-01-30T08:18:11;102117.66;;;3.72;100.00
51928;BME280;37953;52.806;18.270;2024-01-30T08:20:37;102117.75;;;3.73;100.00
51928;BME280;37953;52.806;18.270;2024-01-30T08:23:12;102123.00;;;3.75;100.00
51928;BME280;37953;52.806;18.270;2024-01-30T08:25:38;102128.28;;;3.78;100.00
51928;BME280;37953;52.806;18.270;2024-01-30T08:28:04;102125.88;;;3.81;100.00
51928;BME280;37953;52.806;18.270;2024-01-30T08:30:30;102125.97;;;3.82;100.00
51928;BME280;37953;52.806;18.270;2024-01-30T08:32:57;102121.81;;;3.84;100.00
51928;BME280;37953;52.806;18.270;2024-01-30T08:35:26;102130.50;;;3.86;100.00
51928;BME280;37953;52.806;18.270;2024-01-30T08:37:53;102121.19;;;3.88;100.00
51928;BME280;37953;52.806;18.270;2024-01-30T08:40:19;102118.81;;;3.92;100.00
51928;BME280;37953;52.806;18.270;2024-01-30T08:42:46;102124.94;;;3.94;100.00
51928;BME280;37953;52.806;18.270;2024-01-30T08:45:14;102120.72;;;3.96;100.00
51928;BME280;37953;52.806;18.270;2024-01-30T08:47:40;102116.56;;;3.98;100.00
51928;BME280;37953;52.806;18.270;2024-01-30T08:50:07;102110.63;;;3.99;100.00
51928;BME280;37953;52.806;18.270;2024-01-30T08:52:33;102114.94;;;4.00;100.00
51928;BME280;37953;52.806;18.270;2024-01-30T08:55:00;102115.13;;;4.03;100.00
51928;BME280;37953;52.806;18.270;2024-01-30T08:57:26;102115.13;;;4.03;100.00
51928;BME280;37953;52.806;18.270;2024-01-30T08:59:54;102115.13;;;4.03;100.00
51928;BME280;37953;52.806;18.270;2024-01-30T09:02:20;102109.28;;;4.05;100.00
51928;BME280;37953;52.806;18.270;2024-01-30T09:04:46;102121.34;;;4.06;100.00
51928;BME280;37953;52.806;18.270;2024-01-30T09:07:13;102118.06;;;4.09;100.00
51928;BME280;37953;52.806;18.270;2024-01-30T09:09:39;102111.22;;;4.10;100.00
51928;BME280;37953;52.806;18.270;2024-01-30T09:12:09;102112.97;;;4.11;100.00
51928;BME280;37953;52.806;18.270;2024-01-30T09:14:38;102109.63;;;4.12;100.00
51928;BME280;37953;52.806;18.270;2024-01-30T09:17:04;102117.44;;;4.13;100.00
51928;BME280;37953;52.806;18.270;2024-01-30T09:19:30;102111.38;;;4.13;100.00
51928;BME280;37953;52.806;18.270;2024-01-30T09:21:57;102107.19;;;4.15;100.00
51928;BME280;37953;52.806;18.270;2024-01-30T09:24:22;102104.56;;;4.13;100.00
51928;BME280;37953;52.806;18.270;2024-01-30T09:26:49;102103.03;;;4.17;100.00
51928;BME280;37953;52.806;18.270;2024-01-30T09:29:35;102108.25;;;4.18;100.00
51928;BME280;37953;52.806;18.270;2024-01-30T09:32:11;102104.09;;;4.20;100.00
51928;BME280;37953;52.806;18.270;2024-01-30T09:34:37;102105.06;;;4.22;100.00
51928;BME280;37953;52.806;18.270;2024-01-30T09:37:14;102107.72;;;4.24;100.00
51928;BME280;37953;52.806;18.270;2024-01-30T09:39:41;102103.56;;;4.26;100.00
51928;BME280;37953;52.806;18.270;2024-01-30T09:42:11;102092.44;;;4.27;100.00
51928;BME280;37953;52.806;18.270;2024-01-30T09:44:43;102097.78;;;4.30;100.00
51928;BME280;37953;52.806;18.270;2024-01-30T09:47:10;102092.63;;;4.30;100.00
51928;BME280;37953;52.806;18.270;2024-01-30T09:49:36;102102.28;;;4.34;100.00
51928;BME280;37953;52.806;18.270;2024-01-30T09:52:05;102094.72;;;4.37;100.00
51928;BME280;37953;52.806;18.270;2024-01-30T09:54:32;102095.78;;;4.41;100.00
51928;BME280;37953;52.806;18.270;2024-01-30T09:56:58;102095.06;;;4.43;100.00
51928;BME280;37953;52.806;18.270;2024-01-30T09:59:24;102082.28;;;4.45;100.00
51928;BME280;37953;52.806;18.270;2024-01-30T10:01:51;102083.31;;;4.48;100.00
51928;BME280;37953;52.806;18.270;2024-01-30T10:04:17;102079.94;;;4.49;100.00
51928;BME280;37953;52.806;18.270;2024-01-30T10:06:44;102081.78;;;4.52;100.00
51928;BME280;37953;52.806;18.270;2024-01-30T10:09:10;102074.25;;;4.55;100.00
51928;BME280;37953;52.806;18.270;2024-01-30T10:11:36;102070.06;;;4.57;100.00
51928;BME280;37953;52.806;18.270;2024-01-30T10:14:02;102068.53;;;4.61;100.00
51928;BME280;37953;52.806;18.270;2024-01-30T10:16:29;102065.16;;;4.62;100.00
51928;BME280;37953;52.806;18.270;2024-01-30T10:18:55;102066.19;;;4.65;100.00
51928;BME280;37953;52.806;18.270;2024-01-30T10:21:22;102065.47;;;4.68;100.00
51928;BME280;37953;52.806;18.270;2024-01-30T10:23:47;102054.47;;;4.71;100.00
51928;BME280;37953;52.806;18.270;2024-01-30T10:26:25;102061.59;;;4.76;100.00
51928;BME280;37953;52.806;18.270;2024-01-30T10:28:51;102051.56;;;4.81;100.00
51928;BME280;37953;52.806;18.270;2024-01-30T10:31:18;102051.78;;;4.85;100.00
51928;BME280;37953;52.806;18.270;2024-01-30T10:33:44;102055.47;;;4.90;100.00
51928;BME280;37953;52.806;18.270;2024-01-30T10:36:13;102045.41;;;4.95;100.00
51928;BME280;37953;52.806;18.270;2024-01-30T10:38:42;102049.19;;;5.02;100.00
51928;BME280;37953;52.806;18.270;2024-01-30T10:41:10;102045.16;;;5.07;100.00
51928;BME280;37953;52.806;18.270;2024-01-30T10:43:45;102044.50;;;5.11;100.00
51928;BME280;37953;52.806;18.270;2024-01-30T10:46:33;102041.41;;;5.18;100.00
51928;BME280;37953;52.806;18.270;2024-01-30T10:49:02;102040.84;;;5.24;100.00
51928;BME280;37953;52.806;18.270;2024-01-30T10:51:31;102044.59;;;5.30;100.00
51928;BME280;37953;52.806;18.270;2024-01-30T10:53:57;102043.94;;;5.35;100.00
51928;BME280;37953;52.806;18.270;2024-01-30T10:56:25;102051.03;;;5.39;100.00
51928;BME280;37953;52.806;18.270;2024-01-30T10:58:52;102038.34;;;5.43;100.00
51928;BME280;37953;52.806;18.270;2024-01-30T11:01:19;102045.34;;;5.46;100.00
51928;BME280;37953;52.806;18.270;2024-01-30T11:03:55;102043.06;;;5.52;100.00
51928;BME280;37953;52.806;18.270;2024-01-30T11:06:23;102034.63;;;5.55;100.00
51928;BME280;37953;52.806;18.270;2024-01-30T11:09:25;102039.19;;;5.60;100.00
51928;BME280;37953;52.806;18.270;2024-01-30T11:11:58;102034.09;;;5.62;100.00
51928;BME280;37953;52.806;18.270;2024-01-30T11:14:26;102034.41;;;5.68;100.00
51928;BME280;37953;52.806;18.270;2024-01-30T11:16:52;102030.03;;;5.67;100.00
51928;BME280;37953;52.806;18.270;2024-01-30T11:19:25;102029.25;;;5.68;100.00
51928;BME280;37953;52.806;18.270;2024-01-30T11:21:54;102025.03;;;5.70;100.00
51928;BME280;37953;52.806;18.270;2024-01-30T11:24:25;102020.75;;;5.70;100.00
51928;BME280;37953;52.806;18.270;2024-01-30T11:27:01;102022.81;;;5.78;100.00
51928;BME280;37953;52.806;18.270;2024-01-30T11:29:28;102021.28;;;5.81;100.00
51928;BME280;37953;52.806;18.270;2024-01-30T11:31:56;102024.06;;;5.86;100.00
51928;BME280;37953;52.806;18.270;2024-01-30T11:34:29;102014.78;;;5.89;100.00
51928;BME280;37953;52.806;18.270;2024-01-30T11:37:09;102011.53;;;5.94;100.00
51928;BME280;37953;52.806;18.270;2024-01-30T11:39:36;102012.59;;;5.97;100.00
51928;BME280;37953;52.806;18.270;2024-01-30T11:42:03;102005.81;;;5.99;100.00
51928;BME280;37953;52.806;18.270;2024-01-30T11:44:31;102003.28;;;6.01;100.00
51928;BME280;37953;52.806;18.270;2024-01-30T11:46:57;102002.50;;;6.02;100.00
51928;BME280;37953;52.806;18.270;2024-01-30T11:49:23;101999.16;;;6.04;100.00
51928;BME280;37953;52.806;18.270;2024-01-30T11:51:52;101998.38;;;6.05;100.00
51928;BME280;37953;52.806;18.270;2024-01-30T11:54:18;101998.50;;;6.08;100.00
51928;BME280;37953;52.806;18.270;2024-01-30T11:56:45;102005.47;;;6.11;100.00
51928;BME280;37953;52.806;18.270;2024-01-30T11:59:11;102002.22;;;6.15;100.00
51928;BME280;37953;52.806;18.270;2024-01-30T12:01:37;101995.44;;;6.17;100.00
51928;BME280;37953;52.806;18.270;2024-01-30T12:04:04;101994.69;;;6.20;100.00
51928;BME280;37953;52.806;18.270;2024-01-30T12:06:34;101992.25;;;6.23;100.00
51928;BME280;37953;52.806;18.270;2024-01-30T12:09:02;101997.53;;;6.26;100.00
51928;BME280;37953;52.806;18.270;2024-01-30T12:11:47;101985.59;;;6.28;100.00
51928;BME280;37953;52.806;18.270;2024-01-30T12:14:25;101982.34;;;6.32;100.00
51928;BME280;37953;52.806;18.270;2024-01-30T12:16:52;101984.16;;;6.35;100.00
51928;BME280;37953;52.806;18.270;2024-01-30T12:19:24;101982.53;;;6.37;100.00
51928;BME280;37953;52.806;18.270;2024-01-30T12:21:57;101973.13;;;6.37;100.00
51928;BME280;37953;52.806;18.270;2024-01-30T12:24:25;101971.50;;;6.39;100.00
51928;BME280;37953;52.806;18.270;2024-01-30T12:26:52;101964.66;;;6.41;100.00
51928;BME280;37953;52.806;18.270;2024-01-30T12:29:22;101956.13;;;6.42;100.00
51928;BME280;37953;52.806;18.270;2024-01-30T12:31:48;101957.81;;;6.42;100.00
51928;BME280;37953;52.806;18.270;2024-01-30T12:34:14;101950.88;;;6.41;100.00
51928;BME280;37953;52.806;18.270;2024-01-30T12:36:43;101957.81;;;6.42;100.00
51928;BME280;37953;52.806;18.270;2024-01-30T12:39:12;101955.25;;;6.42;100.00
51928;BME280;37953;52.806;18.270;2024-01-30T12:41:40;101945.78;;;6.42;100.00